sensor_id;sensor_type;location;lat;lon;timestamp;P1;durP1;ratioP1;P2;durP2;ratioP2
16727;SDS011;8482;54.396;18.590;2023-02-02T00:01:35;5.27;;;1.30;;
16727;SDS011;8482;54.396;18.590;2023-02-02T00:04:01;3.27;;;1.20;;
16727;SDS011;8482;54.396;18.590;2023-02-02T00:06:29;2.37;;;1.30;;
16727;SDS011;8482;54.396;18.590;2023-02-02T00:08:57;5.13;;;1.70;;
16727;SDS011;8482;54.396;18.590;2023-02-02T00:11:25;4.40;;;1.70;;
16727;SDS011;8482;54.396;18.590;2023-02-02T00:13:52;3.97;;;1.57;;
16727;SDS011;8482;54.396;18.590;2023-02-02T00:18:54;4.97;;;1.80;;
16727;SDS011;8482;54.396;18.590;2023-02-02T00:21:23;11.40;;;1.90;;
16727;SDS011;8482;54.396;18.590;2023-02-02T00:23:50;8.87;;;2.10;;
16727;SDS011;8482;54.396;18.590;2023-02-02T00:26:16;5.73;;;1.63;;
16727;SDS011;8482;54.396;18.590;2023-02-02T00:28:43;8.17;;;2.40;;
16727;SDS011;8482;54.396;18.590;2023-02-02T00:31:08;12.00;;;2.10;;
16727;SDS011;8482;54.396;18.590;2023-02-02T00:33:34;8.37;;;2.40;;
16727;SDS011;8482;54.396;18.590;2023-02-02T00:36:00;9.47;;;1.90;;
16727;SDS011;8482;54.396;18.590;2023-02-02T00:38:27;8.50;;;2.10;;
16727;SDS011;8482;54.396;18.590;2023-02-02T00:40:54;10.03;;;2.63;;
16727;SDS011;8482;54.396;18.590;2023-02-02T00:43:20;7.57;;;2.47;;
16727;SDS011;8482;54.396;18.590;2023-02-02T00:45:46;7.30;;;2.33;;
16727;SDS011;8482;54.396;18.590;2023-02-02T00:48:12;6.77;;;2.10;;
16727;SDS011;8482;54.396;18.590;2023-02-02T00:50:38;10.43;;;2.90;;
16727;SDS011;8482;54.396;18.590;2023-02-02T00:53:04;7.47;;;2.30;;
16727;SDS011;8482;54.396;18.590;2023-02-02T00:55:30;8.70;;;2.60;;
16727;SDS011;8482;54.396;18.590;2023-02-02T00:57:55;8.97;;;2.10;;
16727;SDS011;8482;54.396;18.590;2023-02-02T01:00:22;10.27;;;2.70;;
16727;SDS011;8482;54.396;18.590;2023-02-02T01:02:51;13.23;;;2.40;;
16727;SDS011;8482;54.396;18.590;2023-02-02T01:05:18;10.70;;;2.63;;
16727;SDS011;8482;54.396;18.590;2023-02-02T01:07:45;9.50;;;3.20;;
16727;SDS011;8482;54.396;18.590;2023-02-02T01:10:13;9.97;;;2.50;;
16727;SDS011;8482;54.396;18.590;2023-02-02T01:12:42;11.73;;;2.53;;
16727;SDS011;8482;54.396;18.590;2023-02-02T01:15:08;10.43;;;2.30;;
16727;SDS011;8482;54.396;18.590;2023-02-02T01:17:36;10.80;;;2.90;;
16727;SDS011;8482;54.396;18.590;2023-02-02T01:20:03;8.27;;;2.00;;
16727;SDS011;8482;54.396;18.590;2023-02-02T01:22:32;9.17;;;3.30;;
16727;SDS011;8482;54.396;18.590;2023-02-02T01:24:59;7.97;;;2.37;;
16727;SDS011;8482;54.396;18.590;2023-02-02T01:27:25;10.93;;;3.00;;
16727;SDS011;8482;54.396;18.590;2023-02-02T01:29:51;7.20;;;2.17;;
16727;SDS011;8482;54.396;18.590;2023-02-02T01:32:17;9.73;;;2.60;;
16727;SDS011;8482;54.396;18.590;2023-02-02T01:34:43;11.77;;;3.07;;
16727;SDS011;8482;54.396;18.590;2023-02-02T01:37:09;11.50;;;2.20;;
16727;SDS011;8482;54.396;18.590;2023-02-02T01:39:35;9.47;;;2.47;;
16727;SDS011;8482;54.396;18.590;2023-02-02T01:42:02;11.43;;;2.27;;
16727;SDS011;8482;54.396;18.590;2023-02-02T01:48:02;8.33;;;2.17;;
16727;SDS011;8482;54.396;18.590;2023-02-02T01:50:29;8.33;;;2.10;;
16727;SDS011;8482;54.396;18.590;2023-02-02T01:52:59;9.37;;;2.33;;
16727;SDS011;8482;54.396;18.590;2023-02-02T01:55:27;9.57;;;2.10;;
16727;SDS011;8482;54.396;18.590;2023-02-02T01:57:59;12.40;;;2.27;;
16727;SDS011;8482;54.396;18.590;2023-02-02T02:00:35;10.90;;;2.10;;
16727;SDS011;8482;54.396;18.590;2023-02-02T02:03:05;8.63;;;2.10;;
16727;SDS011;8482;54.396;18.590;2023-02-02T02:05:40;8.70;;;2.77;;
16727;SDS011;8482;54.396;18.590;2023-02-02T02:08:30;7.63;;;2.80;;
16727;SDS011;8482;54.396;18.590;2023-02-02T02:11:03;8.97;;;2.47;;
16727;SDS011;8482;54.396;18.590;2023-02-02T02:13:30;9.13;;;2.00;;
16727;SDS011;8482;54.396;18.590;2023-02-02T02:16:23;7.77;;;2.17;;
16727;SDS011;8482;54.396;18.590;2023-02-02T02:21:59;7.67;;;2.03;;
16727;SDS011;8482;54.396;18.590;2023-02-02T02:30:50;6.50;;;2.20;;
16727;SDS011;8482;54.396;18.590;2023-02-02T02:33:47;7.03;;;2.00;;
16727;SDS011;8482;54.396;18.590;2023-02-02T02:36:44;12.17;;;2.53;;
16727;SDS011;8482;54.396;18.590;2023-02-02T02:39:44;8.83;;;2.00;;
16727;SDS011;8482;54.396;18.590;2023-02-02T02:42:21;11.77;;;2.47;;
16727;SDS011;8482;54.396;18.590;2023-02-02T02:44:53;7.93;;;1.90;;
16727;SDS011;8482;54.396;18.590;2023-02-02T02:47:25;8.40;;;2.60;;
16727;SDS011;8482;54.396;18.590;2023-02-02T02:49:55;7.30;;;2.00;;
16727;SDS011;8482;54.396;18.590;2023-02-02T02:52:21;10.10;;;2.23;;
16727;SDS011;8482;54.396;18.590;2023-02-02T02:54:52;7.40;;;1.97;;
16727;SDS011;8482;54.396;18.590;2023-02-02T03:04:05;9.13;;;1.80;;
16727;SDS011;8482;54.396;18.590;2023-02-02T03:06:59;9.07;;;2.23;;
16727;SDS011;8482;54.396;18.590;2023-02-02T03:09:41;9.90;;;2.47;;
16727;SDS011;8482;54.396;18.590;2023-02-02T03:12:11;4.90;;;1.20;;
16727;SDS011;8482;54.396;18.590;2023-02-02T03:14:37;12.67;;;2.20;;
16727;SDS011;8482;54.396;18.590;2023-02-02T03:17:03;9.77;;;2.23;;
16727;SDS011;8482;54.396;18.590;2023-02-02T03:19:29;6.70;;;1.80;;
16727;SDS011;8482;54.396;18.590;2023-02-02T03:21:55;6.57;;;2.20;;
16727;SDS011;8482;54.396;18.590;2023-02-02T03:24:21;4.70;;;1.57;;
16727;SDS011;8482;54.396;18.590;2023-02-02T03:26:47;6.93;;;1.67;;
16727;SDS011;8482;54.396;18.590;2023-02-02T03:29:13;8.33;;;2.50;;
16727;SDS011;8482;54.396;18.590;2023-02-02T03:31:39;7.70;;;1.90;;
16727;SDS011;8482;54.396;18.590;2023-02-02T03:34:05;7.00;;;1.83;;
16727;SDS011;8482;54.396;18.590;2023-02-02T03:36:31;10.17;;;2.27;;
16727;SDS011;8482;54.396;18.590;2023-02-02T03:38:56;10.43;;;2.10;;
16727;SDS011;8482;54.396;18.590;2023-02-02T03:41:22;10.90;;;2.30;;
16727;SDS011;8482;54.396;18.590;2023-02-02T03:43:49;11.07;;;2.70;;
16727;SDS011;8482;54.396;18.590;2023-02-02T03:46:14;7.90;;;2.03;;
16727;SDS011;8482;54.396;18.590;2023-02-02T03:48:40;8.53;;;1.70;;
16727;SDS011;8482;54.396;18.590;2023-02-02T03:51:07;6.67;;;2.07;;
16727;SDS011;8482;54.396;18.590;2023-02-02T03:53:38;6.43;;;1.90;;
16727;SDS011;8482;54.396;18.590;2023-02-02T03:56:08;8.33;;;2.67;;
16727;SDS011;8482;54.396;18.590;2023-02-02T03:58:34;7.17;;;1.73;;
16727;SDS011;8482;54.396;18.590;2023-02-02T04:01:04;7.15;;;2.20;;
16727;SDS011;8482;54.396;18.590;2023-02-02T04:03:34;7.87;;;1.80;;
16727;SDS011;8482;54.396;18.590;2023-02-02T04:06:00;8.63;;;2.00;;
16727;SDS011;8482;54.396;18.590;2023-02-02T04:08:25;6.70;;;1.77;;
16727;SDS011;8482;54.396;18.590;2023-02-02T04:10:52;10.27;;;2.47;;
16727;SDS011;8482;54.396;18.590;2023-02-02T04:13:18;5.67;;;1.70;;
16727;SDS011;8482;54.396;18.590;2023-02-02T04:15:44;9.43;;;1.83;;
16727;SDS011;8482;54.396;18.590;2023-02-02T04:18:10;4.73;;;1.40;;
16727;SDS011;8482;54.396;18.590;2023-02-02T04:20:36;5.37;;;1.73;;
16727;SDS011;8482;54.396;18.590;2023-02-02T04:23:02;7.10;;;1.90;;
16727;SDS011;8482;54.396;18.590;2023-02-02T04:25:28;7.63;;;1.80;;
16727;SDS011;8482;54.396;18.590;2023-02-02T04:27:54;6.10;;;2.00;;
16727;SDS011;8482;54.396;18.590;2023-02-02T04:30:20;5.17;;;1.60;;
16727;SDS011;8482;54.396;18.590;2023-02-02T04:32:46;7.40;;;1.80;;
16727;SDS011;8482;54.396;18.590;2023-02-02T04:35:12;6.40;;;1.83;;
16727;SDS011;8482;54.396;18.590;2023-02-02T04:37:38;5.67;;;2.33;;
16727;SDS011;8482;54.396;18.590;2023-02-02T04:40:04;6.93;;;2.00;;
16727;SDS011;8482;54.396;18.590;2023-02-02T04:42:30;6.60;;;2.00;;
16727;SDS011;8482;54.396;18.590;2023-02-02T04:44:58;6.50;;;1.67;;
16727;SDS011;8482;54.396;18.590;2023-02-02T04:47:24;8.53;;;2.10;;
16727;SDS011;8482;54.396;18.590;2023-02-02T04:49:49;5.73;;;1.77;;
16727;SDS011;8482;54.396;18.590;2023-02-02T04:52:15;4.03;;;1.70;;
16727;SDS011;8482;54.396;18.590;2023-02-02T04:54:41;5.63;;;1.67;;
16727;SDS011;8482;54.396;18.590;2023-02-02T04:57:07;4.80;;;1.90;;
16727;SDS011;8482;54.396;18.590;2023-02-02T04:59:33;5.23;;;1.67;;
16727;SDS011;8482;54.396;18.590;2023-02-02T05:01:59;5.07;;;1.50;;
16727;SDS011;8482;54.396;18.590;2023-02-02T05:04:26;4.77;;;1.33;;
16727;SDS011;8482;54.396;18.590;2023-02-02T05:06:52;7.10;;;1.60;;
16727;SDS011;8482;54.396;18.590;2023-02-02T05:09:18;2.83;;;1.17;;
16727;SDS011;8482;54.396;18.590;2023-02-02T05:11:44;4.83;;;1.63;;
16727;SDS011;8482;54.396;18.590;2023-02-02T05:14:10;6.13;;;1.80;;
16727;SDS011;8482;54.396;18.590;2023-02-02T05:16:36;5.53;;;1.53;;
16727;SDS011;8482;54.396;18.590;2023-02-02T05:19:03;4.03;;;1.50;;
16727;SDS011;8482;54.396;18.590;2023-02-02T05:21:29;3.33;;;1.40;;
16727;SDS011;8482;54.396;18.590;2023-02-02T05:23:56;4.97;;;1.40;;
16727;SDS011;8482;54.396;18.590;2023-02-02T05:26:23;6.10;;;1.50;;
16727;SDS011;8482;54.396;18.590;2023-02-02T05:28:51;3.13;;;1.83;;
16727;SDS011;8482;54.396;18.590;2023-02-02T05:31:18;4.30;;;1.50;;
16727;SDS011;8482;54.396;18.590;2023-02-02T05:33:44;4.03;;;1.47;;
16727;SDS011;8482;54.396;18.590;2023-02-02T05:36:10;3.17;;;1.20;;
16727;SDS011;8482;54.396;18.590;2023-02-02T05:38:36;4.07;;;1.47;;
16727;SDS011;8482;54.396;18.590;2023-02-02T05:41:03;4.53;;;2.07;;
16727;SDS011;8482;54.396;18.590;2023-02-02T05:43:30;1.77;;;1.00;;
16727;SDS011;8482;54.396;18.590;2023-02-02T05:45:57;3.60;;;1.50;;
16727;SDS011;8482;54.396;18.590;2023-02-02T05:48:23;3.27;;;1.47;;
16727;SDS011;8482;54.396;18.590;2023-02-02T05:53:34;4.47;;;1.80;;
16727;SDS011;8482;54.396;18.590;2023-02-02T05:56:00;6.27;;;1.63;;
16727;SDS011;8482;54.396;18.590;2023-02-02T05:58:26;3.37;;;1.50;;
16727;SDS011;8482;54.396;18.590;2023-02-02T06:00:52;2.97;;;1.47;;
16727;SDS011;8482;54.396;18.590;2023-02-02T06:03:19;4.97;;;1.70;;
16727;SDS011;8482;54.396;18.590;2023-02-02T06:05:45;5.40;;;1.70;;
16727;SDS011;8482;54.396;18.590;2023-02-02T06:08:11;4.90;;;1.80;;
16727;SDS011;8482;54.396;18.590;2023-02-02T06:10:40;4.60;;;1.70;;
16727;SDS011;8482;54.396;18.590;2023-02-02T06:13:06;4.70;;;1.67;;
16727;SDS011;8482;54.396;18.590;2023-02-02T06:15:33;5.87;;;1.90;;
16727;SDS011;8482;54.396;18.590;2023-02-02T06:18:00;3.80;;;1.70;;
16727;SDS011;8482;54.396;18.590;2023-02-02T06:20:26;2.67;;;1.30;;
16727;SDS011;8482;54.396;18.590;2023-02-02T06:22:53;3.97;;;1.30;;
16727;SDS011;8482;54.396;18.590;2023-02-02T06:25:19;1.50;;;1.20;;
16727;SDS011;8482;54.396;18.590;2023-02-02T06:27:45;2.37;;;1.10;;
16727;SDS011;8482;54.396;18.590;2023-02-02T06:30:11;2.00;;;0.80;;
16727;SDS011;8482;54.396;18.590;2023-02-02T06:32:38;2.23;;;0.93;;
16727;SDS011;8482;54.396;18.590;2023-02-02T06:35:04;1.70;;;0.83;;
16727;SDS011;8482;54.396;18.590;2023-02-02T06:37:30;0.73;;;0.60;;
16727;SDS011;8482;54.396;18.590;2023-02-02T06:39:58;1.70;;;0.70;;
16727;SDS011;8482;54.396;18.590;2023-02-02T06:42:24;1.67;;;1.00;;
16727;SDS011;8482;54.396;18.590;2023-02-02T06:44:50;2.03;;;0.90;;
16727;SDS011;8482;54.396;18.590;2023-02-02T06:47:16;1.30;;;0.80;;
16727;SDS011;8482;54.396;18.590;2023-02-02T06:49:42;2.20;;;0.60;;
16727;SDS011;8482;54.396;18.590;2023-02-02T06:52:07;1.60;;;0.90;;
16727;SDS011;8482;54.396;18.590;2023-02-02T06:54:33;0.80;;;0.77;;
16727;SDS011;8482;54.396;18.590;2023-02-02T06:56:59;0.70;;;0.67;;
16727;SDS011;8482;54.396;18.590;2023-02-02T06:59:25;1.13;;;0.70;;
16727;SDS011;8482;54.396;18.590;2023-02-02T07:01:50;0.70;;;0.60;;
16727;SDS011;8482;54.396;18.590;2023-02-02T07:04:17;2.63;;;0.83;;
16727;SDS011;8482;54.396;18.590;2023-02-02T07:06:43;1.73;;;0.70;;
16727;SDS011;8482;54.396;18.590;2023-02-02T07:09:10;0.90;;;0.70;;
16727;SDS011;8482;54.396;18.590;2023-02-02T07:11:36;1.80;;;0.77;;
16727;SDS011;8482;54.396;18.590;2023-02-02T07:14:01;1.17;;;0.70;;
16727;SDS011;8482;54.396;18.590;2023-02-02T07:16:28;1.23;;;0.80;;
16727;SDS011;8482;54.396;18.590;2023-02-02T07:18:55;1.67;;;0.87;;
16727;SDS011;8482;54.396;18.590;2023-02-02T07:21:22;2.60;;;1.00;;
16727;SDS011;8482;54.396;18.590;2023-02-02T07:23:53;2.20;;;1.03;;
16727;SDS011;8482;54.396;18.590;2023-02-02T07:26:19;0.90;;;0.83;;
16727;SDS011;8482;54.396;18.590;2023-02-02T07:28:45;4.37;;;1.10;;
16727;SDS011;8482;54.396;18.590;2023-02-02T07:33:41;3.03;;;1.07;;
16727;SDS011;8482;54.396;18.590;2023-02-02T07:36:08;2.23;;;1.00;;
16727;SDS011;8482;54.396;18.590;2023-02-02T07:38:36;3.60;;;1.30;;
16727;SDS011;8482;54.396;18.590;2023-02-02T07:41:02;2.17;;;0.90;;
16727;SDS011;8482;54.396;18.590;2023-02-02T07:43:29;3.03;;;1.00;;
16727;SDS011;8482;54.396;18.590;2023-02-02T07:46:01;4.33;;;1.03;;
16727;SDS011;8482;54.396;18.590;2023-02-02T07:48:32;2.30;;;1.10;;
16727;SDS011;8482;54.396;18.590;2023-02-02T07:50:59;2.37;;;1.00;;
16727;SDS011;8482;54.396;18.590;2023-02-02T07:53:26;2.57;;;1.20;;
16727;SDS011;8482;54.396;18.590;2023-02-02T07:56:03;1.80;;;0.90;;
16727;SDS011;8482;54.396;18.590;2023-02-02T07:58:38;1.47;;;0.87;;
16727;SDS011;8482;54.396;18.590;2023-02-02T08:01:07;2.20;;;1.27;;
16727;SDS011;8482;54.396;18.590;2023-02-02T08:03:35;2.37;;;1.20;;
16727;SDS011;8482;54.396;18.590;2023-02-02T08:06:13;1.77;;;0.90;;
16727;SDS011;8482;54.396;18.590;2023-02-02T08:08:48;2.10;;;1.10;;
16727;SDS011;8482;54.396;18.590;2023-02-02T08:11:15;1.50;;;0.90;;
16727;SDS011;8482;54.396;18.590;2023-02-02T08:13:49;3.33;;;1.23;;
16727;SDS011;8482;54.396;18.590;2023-02-02T08:16:17;3.07;;;1.17;;
16727;SDS011;8482;54.396;18.590;2023-02-02T08:18:44;2.90;;;1.10;;
16727;SDS011;8482;54.396;18.590;2023-02-02T08:21:10;2.63;;;1.27;;
16727;SDS011;8482;54.396;18.590;2023-02-02T08:23:37;3.57;;;1.40;;
16727;SDS011;8482;54.396;18.590;2023-02-02T08:26:10;2.77;;;1.10;;
16727;SDS011;8482;54.396;18.590;2023-02-02T08:28:40;3.10;;;1.23;;
16727;SDS011;8482;54.396;18.590;2023-02-02T08:31:16;3.57;;;1.33;;
16727;SDS011;8482;54.396;18.590;2023-02-02T08:33:46;2.93;;;1.40;;
16727;SDS011;8482;54.396;18.590;2023-02-02T08:36:13;2.83;;;1.63;;
16727;SDS011;8482;54.396;18.590;2023-02-02T08:38:42;4.57;;;1.40;;
16727;SDS011;8482;54.396;18.590;2023-02-02T08:41:09;4.93;;;1.80;;
16727;SDS011;8482;54.396;18.590;2023-02-02T08:43:38;4.17;;;1.73;;
16727;SDS011;8482;54.396;18.590;2023-02-02T08:46:06;4.67;;;1.67;;
16727;SDS011;8482;54.396;18.590;2023-02-02T08:48:34;2.80;;;1.53;;
16727;SDS011;8482;54.396;18.590;2023-02-02T08:51:01;3.13;;;1.50;;
16727;SDS011;8482;54.396;18.590;2023-02-02T08:53:28;3.50;;;1.50;;
16727;SDS011;8482;54.396;18.590;2023-02-02T08:58:33;3.63;;;1.30;;
16727;SDS011;8482;54.396;18.590;2023-02-02T09:01:06;2.93;;;1.53;;
16727;SDS011;8482;54.396;18.590;2023-02-02T09:03:40;2.60;;;1.43;;
16727;SDS011;8482;54.396;18.590;2023-02-02T09:06:10;3.50;;;2.03;;
16727;SDS011;8482;54.396;18.590;2023-02-02T09:08:42;4.07;;;1.57;;
16727;SDS011;8482;54.396;18.590;2023-02-02T09:11:10;5.20;;;1.30;;
16727;SDS011;8482;54.396;18.590;2023-02-02T09:13:42;3.50;;;1.60;;
16727;SDS011;8482;54.396;18.590;2023-02-02T09:16:12;4.27;;;1.20;;
16727;SDS011;8482;54.396;18.590;2023-02-02T09:18:40;2.67;;;1.30;;
16727;SDS011;8482;54.396;18.590;2023-02-02T09:21:09;2.77;;;1.23;;
16727;SDS011;8482;54.396;18.590;2023-02-02T09:23:39;2.27;;;1.27;;
16727;SDS011;8482;54.396;18.590;2023-02-02T09:26:08;5.83;;;1.40;;
16727;SDS011;8482;54.396;18.590;2023-02-02T09:28:42;2.42;;;0.93;;
16727;SDS011;8482;54.396;18.590;2023-02-02T09:31:14;3.37;;;1.30;;
16727;SDS011;8482;54.396;18.590;2023-02-02T09:33:40;1.73;;;1.07;;
16727;SDS011;8482;54.396;18.590;2023-02-02T09:36:08;2.37;;;1.10;;
16727;SDS011;8482;54.396;18.590;2023-02-02T09:38:44;1.63;;;0.83;;
16727;SDS011;8482;54.396;18.590;2023-02-02T09:47:07;2.15;;;1.10;;
16727;SDS011;8482;54.396;18.590;2023-02-02T09:52:57;2.10;;;1.10;;
16727;SDS011;8482;54.396;18.590;2023-02-02T09:55:47;2.13;;;1.13;;
16727;SDS011;8482;54.396;18.590;2023-02-02T09:58:26;1.80;;;1.00;;
16727;SDS011;8482;54.396;18.590;2023-02-02T10:01:11;1.87;;;1.00;;
16727;SDS011;8482;54.396;18.590;2023-02-02T10:06:39;2.03;;;0.70;;
16727;SDS011;8482;54.396;18.590;2023-02-02T10:12:05;2.90;;;1.13;;
16727;SDS011;8482;54.396;18.590;2023-02-02T10:23:33;1.33;;;0.90;;
16727;SDS011;8482;54.396;18.590;2023-02-02T10:29:09;2.20;;;0.80;;
16727;SDS011;8482;54.396;18.590;2023-02-02T10:46:52;1.63;;;0.97;;
16727;SDS011;8482;54.396;18.590;2023-02-02T10:49:33;1.58;;;0.82;;
16727;SDS011;8482;54.396;18.590;2023-02-02T10:52:10;2.60;;;1.10;;
16727;SDS011;8482;54.396;18.590;2023-02-02T10:54:53;2.47;;;1.57;;
16727;SDS011;8482;54.396;18.590;2023-02-02T11:00:34;1.13;;;0.70;;
16727;SDS011;8482;54.396;18.590;2023-02-02T11:03:26;2.23;;;0.80;;
16727;SDS011;8482;54.396;18.590;2023-02-02T11:05:56;2.93;;;0.90;;
16727;SDS011;8482;54.396;18.590;2023-02-02T11:08:46;2.83;;;1.00;;
16727;SDS011;8482;54.396;18.590;2023-02-02T11:11:39;1.57;;;0.93;;
16727;SDS011;8482;54.396;18.590;2023-02-02T11:14:16;2.73;;;0.90;;
16727;SDS011;8482;54.396;18.590;2023-02-02T11:17:05;2.53;;;1.00;;
16727;SDS011;8482;54.396;18.590;2023-02-02T11:19:42;1.57;;;0.87;;
16727;SDS011;8482;54.396;18.590;2023-02-02T11:22:20;1.33;;;0.90;;
16727;SDS011;8482;54.396;18.590;2023-02-02T11:33:01;3.73;;;1.20;;
16727;SDS011;8482;54.396;18.590;2023-02-02T11:36:02;2.07;;;0.83;;
16727;SDS011;8482;54.396;18.590;2023-02-02T11:38:46;1.23;;;0.82;;
16727;SDS011;8482;54.396;18.590;2023-02-02T11:41:12;2.83;;;1.10;;
16727;SDS011;8482;54.396;18.590;2023-02-02T11:43:49;1.75;;;0.73;;
16727;SDS011;8482;54.396;18.590;2023-02-02T11:46:21;3.17;;;1.20;;
16727;SDS011;8482;54.396;18.590;2023-02-02T11:51:24;1.40;;;1.10;;
16727;SDS011;8482;54.396;18.590;2023-02-02T11:54:05;0.90;;;0.70;;
16727;SDS011;8482;54.396;18.590;2023-02-02T11:56:42;1.48;;;0.82;;
16727;SDS011;8482;54.396;18.590;2023-02-02T12:04:44;0.77;;;0.57;;
16727;SDS011;8482;54.396;18.590;2023-02-02T12:07:23;2.00;;;0.90;;
16727;SDS011;8482;54.396;18.590;2023-02-02T12:09:50;1.48;;;0.70;;
16727;SDS011;8482;54.396;18.590;2023-02-02T12:17:55;1.42;;;0.82;;
16727;SDS011;8482;54.396;18.590;2023-02-02T12:21:10;2.80;;;0.90;;
16727;SDS011;8482;54.396;18.590;2023-02-02T12:26:40;1.10;;;0.70;;
16727;SDS011;8482;54.396;18.590;2023-02-02T12:37:53;1.80;;;1.10;;
16727;SDS011;8482;54.396;18.590;2023-02-02T13:08:21;3.63;;;1.40;;
16727;SDS011;8482;54.396;18.590;2023-02-02T13:10:56;3.77;;;1.63;;
16727;SDS011;8482;54.396;18.590;2023-02-02T13:16:48;5.83;;;2.70;;
16727;SDS011;8482;54.396;18.590;2023-02-02T13:19:27;4.80;;;1.70;;
16727;SDS011;8482;54.396;18.590;2023-02-02T13:22:09;4.70;;;2.10;;
16727;SDS011;8482;54.396;18.590;2023-02-02T13:24:45;4.73;;;1.67;;
16727;SDS011;8482;54.396;18.590;2023-02-02T13:27:14;3.30;;;1.93;;
16727;SDS011;8482;54.396;18.590;2023-02-02T13:32:43;4.97;;;2.10;;
16727;SDS011;8482;54.396;18.590;2023-02-02T13:35:20;5.07;;;1.60;;
16727;SDS011;8482;54.396;18.590;2023-02-02T13:40:55;2.23;;;1.00;;
16727;SDS011;8482;54.396;18.590;2023-02-02T13:49:07;2.03;;;0.73;;
16727;SDS011;8482;54.396;18.590;2023-02-02T14:00:47;1.60;;;0.90;;
16727;SDS011;8482;54.396;18.590;2023-02-02T14:06:19;4.30;;;1.30;;
16727;SDS011;8482;54.396;18.590;2023-02-02T14:08:59;3.63;;;1.47;;
16727;SDS011;8482;54.396;18.590;2023-02-02T14:11:30;4.33;;;1.23;;
16727;SDS011;8482;54.396;18.590;2023-02-02T14:14:07;4.43;;;1.27;;
16727;SDS011;8482;54.396;18.590;2023-02-02T14:20:01;3.20;;;1.17;;
16727;SDS011;8482;54.396;18.590;2023-02-02T14:22:44;2.47;;;1.33;;
16727;SDS011;8482;54.396;18.590;2023-02-02T14:27:57;4.17;;;1.43;;
16727;SDS011;8482;54.396;18.590;2023-02-02T14:30:30;2.97;;;1.20;;
16727;SDS011;8482;54.396;18.590;2023-02-02T14:35:52;3.90;;;1.40;;
16727;SDS011;8482;54.396;18.590;2023-02-02T14:45:04;4.57;;;1.40;;
16727;SDS011;8482;54.396;18.590;2023-02-02T14:48:20;4.23;;;1.30;;
16727;SDS011;8482;54.396;18.590;2023-02-02T14:53:05;3.87;;;1.40;;
16727;SDS011;8482;54.396;18.590;2023-02-02T14:55:52;4.27;;;1.43;;
16727;SDS011;8482;54.396;18.590;2023-02-02T15:03:52;3.30;;;1.20;;
16727;SDS011;8482;54.396;18.590;2023-02-02T15:14:48;3.50;;;1.10;;
16727;SDS011;8482;54.396;18.590;2023-02-02T15:20:20;3.10;;;1.07;;
16727;SDS011;8482;54.396;18.590;2023-02-02T15:23:02;2.17;;;1.30;;
16727;SDS011;8482;54.396;18.590;2023-02-02T15:28:57;3.67;;;1.70;;
16727;SDS011;8482;54.396;18.590;2023-02-02T15:31:38;3.83;;;1.40;;
16727;SDS011;8482;54.396;18.590;2023-02-02T15:34:13;4.87;;;2.03;;
16727;SDS011;8482;54.396;18.590;2023-02-02T15:36:46;4.97;;;1.50;;
16727;SDS011;8482;54.396;18.590;2023-02-02T15:39:35;5.87;;;2.03;;
16727;SDS011;8482;54.396;18.590;2023-02-02T15:42:24;5.97;;;2.07;;
16727;SDS011;8482;54.396;18.590;2023-02-02T15:50:55;7.83;;;1.90;;
16727;SDS011;8482;54.396;18.590;2023-02-02T15:56:18;3.87;;;1.87;;
16727;SDS011;8482;54.396;18.590;2023-02-02T15:58:55;4.07;;;1.70;;
16727;SDS011;8482;54.396;18.590;2023-02-02T16:01:25;5.03;;;1.73;;
16727;SDS011;8482;54.396;18.590;2023-02-02T16:04:01;2.43;;;1.50;;
16727;SDS011;8482;54.396;18.590;2023-02-02T16:06:50;5.10;;;1.33;;
16727;SDS011;8482;54.396;18.590;2023-02-02T16:09:28;6.40;;;1.30;;
16727;SDS011;8482;54.396;18.590;2023-02-02T16:11:59;2.93;;;1.50;;
16727;SDS011;8482;54.396;18.590;2023-02-02T16:14:28;5.70;;;2.00;;
16727;SDS011;8482;54.396;18.590;2023-02-02T16:20:04;4.10;;;1.77;;
16727;SDS011;8482;54.396;18.590;2023-02-02T16:22:38;3.40;;;1.60;;
16727;SDS011;8482;54.396;18.590;2023-02-02T16:25:14;4.30;;;1.73;;
16727;SDS011;8482;54.396;18.590;2023-02-02T16:27:45;6.40;;;1.87;;
16727;SDS011;8482;54.396;18.590;2023-02-02T16:32:54;3.73;;;1.50;;
16727;SDS011;8482;54.396;18.590;2023-02-02T16:38:14;4.77;;;1.80;;
16727;SDS011;8482;54.396;18.590;2023-02-02T16:41:03;5.43;;;2.13;;
16727;SDS011;8482;54.396;18.590;2023-02-02T16:43:39;5.47;;;2.50;;
16727;SDS011;8482;54.396;18.590;2023-02-02T16:48:42;4.33;;;2.20;;
16727;SDS011;8482;54.396;18.590;2023-02-02T16:51:30;8.70;;;2.10;;
16727;SDS011;8482;54.396;18.590;2023-02-02T16:56:28;5.63;;;1.80;;
16727;SDS011;8482;54.396;18.590;2023-02-02T16:59:03;4.23;;;1.50;;
16727;SDS011;8482;54.396;18.590;2023-02-02T17:01:41;3.43;;;1.67;;
16727;SDS011;8482;54.396;18.590;2023-02-02T17:04:26;5.10;;;1.93;;
16727;SDS011;8482;54.396;18.590;2023-02-02T17:06:56;3.57;;;1.80;;
16727;SDS011;8482;54.396;18.590;2023-02-02T17:09:34;4.80;;;1.63;;
16727;SDS011;8482;54.396;18.590;2023-02-02T17:12:05;5.67;;;1.93;;
16727;SDS011;8482;54.396;18.590;2023-02-02T17:17:15;3.80;;;1.80;;
16727;SDS011;8482;54.396;18.590;2023-02-02T17:19:41;3.57;;;1.57;;
16727;SDS011;8482;54.396;18.590;2023-02-02T17:22:07;4.30;;;1.70;;
16727;SDS011;8482;54.396;18.590;2023-02-02T17:24:34;3.67;;;1.40;;
16727;SDS011;8482;54.396;18.590;2023-02-02T17:27:00;4.17;;;1.70;;
16727;SDS011;8482;54.396;18.590;2023-02-02T17:29:27;2.07;;;1.13;;
16727;SDS011;8482;54.396;18.590;2023-02-02T17:31:53;5.53;;;2.17;;
16727;SDS011;8482;54.396;18.590;2023-02-02T17:34:20;4.47;;;1.60;;
16727;SDS011;8482;54.396;18.590;2023-02-02T17:36:46;3.90;;;1.60;;
16727;SDS011;8482;54.396;18.590;2023-02-02T17:39:12;4.03;;;1.57;;
16727;SDS011;8482;54.396;18.590;2023-02-02T17:41:38;4.40;;;1.50;;
16727;SDS011;8482;54.396;18.590;2023-02-02T17:44:04;4.23;;;1.50;;
16727;SDS011;8482;54.396;18.590;2023-02-02T17:46:31;3.20;;;1.43;;
16727;SDS011;8482;54.396;18.590;2023-02-02T17:48:57;4.87;;;1.57;;
16727;SDS011;8482;54.396;18.590;2023-02-02T17:51:23;4.53;;;1.50;;
16727;SDS011;8482;54.396;18.590;2023-02-02T17:53:49;4.07;;;2.27;;
16727;SDS011;8482;54.396;18.590;2023-02-02T17:56:16;3.57;;;1.37;;
16727;SDS011;8482;54.396;18.590;2023-02-02T17:58:43;3.90;;;1.70;;
16727;SDS011;8482;54.396;18.590;2023-02-02T18:01:09;3.67;;;1.70;;
16727;SDS011;8482;54.396;18.590;2023-02-02T18:03:36;4.63;;;1.70;;
16727;SDS011;8482;54.396;18.590;2023-02-02T18:06:05;4.20;;;1.83;;
16727;SDS011;8482;54.396;18.590;2023-02-02T18:08:32;5.57;;;1.90;;
16727;SDS011;8482;54.396;18.590;2023-02-02T18:10:58;4.10;;;1.80;;
16727;SDS011;8482;54.396;18.590;2023-02-02T18:13:24;3.63;;;1.57;;
16727;SDS011;8482;54.396;18.590;2023-02-02T18:15:51;5.70;;;2.07;;
16727;SDS011;8482;54.396;18.590;2023-02-02T18:18:19;5.50;;;1.80;;
16727;SDS011;8482;54.396;18.590;2023-02-02T18:20:45;6.10;;;2.03;;
16727;SDS011;8482;54.396;18.590;2023-02-02T18:23:14;3.33;;;1.60;;
16727;SDS011;8482;54.396;18.590;2023-02-02T18:25:42;4.33;;;1.50;;
16727;SDS011;8482;54.396;18.590;2023-02-02T18:28:08;5.37;;;1.77;;
16727;SDS011;8482;54.396;18.590;2023-02-02T18:30:38;4.80;;;2.00;;
16727;SDS011;8482;54.396;18.590;2023-02-02T18:33:08;4.73;;;1.90;;
16727;SDS011;8482;54.396;18.590;2023-02-02T18:35:39;5.83;;;2.00;;
16727;SDS011;8482;54.396;18.590;2023-02-02T18:38:10;5.33;;;1.80;;
16727;SDS011;8482;54.396;18.590;2023-02-02T18:40:37;4.43;;;1.70;;
16727;SDS011;8482;54.396;18.590;2023-02-02T18:43:02;5.20;;;1.60;;
16727;SDS011;8482;54.396;18.590;2023-02-02T18:45:29;4.07;;;1.70;;
16727;SDS011;8482;54.396;18.590;2023-02-02T18:47:55;4.30;;;1.07;;
16727;SDS011;8482;54.396;18.590;2023-02-02T18:50:21;3.93;;;1.20;;
16727;SDS011;8482;54.396;18.590;2023-02-02T18:52:48;4.60;;;1.37;;
16727;SDS011;8482;54.396;18.590;2023-02-02T18:55:13;1.83;;;1.00;;